Pagrindinis puslapis
METAR-TAF:

METAR-TAF

Oro uostai :

Lawrence Municipal Airport

Lawrence, Masačusetsas, Jungtinės Amerikos Valstijos

platuma: 42-42-47N, ilguma: 071-07-33W, Aukštis: 45 m

Dabartinis oras

Ataskaita buvo paskelbta 57 minutes, ne 05:54 UTC
Vėjas 12 kt iš Vakarų/Pietvakarių su gūsio iki 20 kt
Temperatūra -2°C
Drėgmė 46%
Slėgis 1004 hPa
Matomumas: 16.1 km
Išsisklaidę debesys ne aukštis 6500 ft

METAR: KLWM 280554Z AUTO 25012G20KT 10SM SCT065 M02/M12 A2965 RMK AO2 PK WND 25028/0501 SLP042 T10171122 10000 21017 53017

Laikas: 01:51 (06:51 UTC)


TAF: trūkstamas

Orai ataskaitas ir orų prognozės (METAR, TAF).

turimą stotys yra geltonos ir raudonos taškus žemėlapyje.

Perkelti pele per norėdami pamatyti stoties vardą.

Tada spustelėkite, norėdami matyti oro stebėjimo ir prognozės.

Norėdami pakeisti žemėlapį: spustelėkite ant žalios mygtukų su juodo kryžiaus žemyn,; žalią mygtuką su brūkšneliu, jei norite nutolinti; arba žalių rodyklių gretimoms žemėlapius.


METAR-TAF: